Time;durP1;ratioP1;P1;durP2;ratioP2;P2;SDS_P1;SDS_P2;PMS_P1;PMS_P2;Temp;Humidity;BMP_temperature;BMP_pressure;BME280_temperature;BME280_humidity;BME280_pressure;Samples;Min_cycle;Max_cycle;Signal;HPM_P1;HPM_P2
2022/01/07 00:01:18;;;;;;;23.97;8.80;;;;;;;1.59;100.00;43447.13;5012734;28;20437;-67
2022/01/07 00:03:44;;;;;;;28.77;7.03;;;;;;;1.69;100.00;33088.84;5006015;28;20171;-68
2022/01/07 00:06:10;;;;;;;24.60;8.13;;;;;;;1.63;100.00;22752.78;5011626;28;20282;-67
2022/01/07 00:08:35;;;;;;;20.60;7.07;;;;;;;1.64;100.00;15346.22;5008108;28;20034;-67
2022/01/07 00:11:01;;;;;;;17.90;6.47;;;;;;;1.71;100.00;5710.81;5013367;28;20036;-67
2022/01/07 00:13:26;;;;;;;24.73;7.70;;;;;;;1.66;100.00;-4538.13;5006667;28;20425;-68
2022/01/07 00:15:54;;;;;;;20.87;7.93;;;;;;;1.54;100.00;-3578.63;5010370;28;20034;-67
2022/01/07 00:18:20;;;;;;;27.03;8.37;;;;;;;1.55;100.00;-699.28;5016519;28;20025;-67
2022/01/07 00:20:46;;;;;;;18.63;7.23;;;;;;;1.52;100.00;-1339.44;5014100;28;20069;-68
2022/01/07 00:23:11;;;;;;;20.60;6.80;;;;;;;1.66;100.00;-7414.63;5019239;28;20467;-67
2022/01/07 00:25:37;;;;;;;21.47;7.63;;;;;;;1.63;100.00;-13241.75;5014896;28;20405;-68
2022/01/07 00:28:03;;;;;;;23.87;7.43;;;;;;;1.58;100.00;-16644.56;5013333;28;20301;-67
2022/01/07 00:30:28;;;;;;;20.23;5.77;;;;;;;1.60;100.00;-18068.16;5013821;28;20037;-67
2022/01/07 00:32:54;;;;;;;20.33;7.77;;;;;;;1.67;100.00;-19210.81;5014166;28;20332;-67
2022/01/07 00:35:21;;;;;;;21.33;6.53;;;;;;;1.77;100.00;-19213.59;5009445;28;20472;-68
2022/01/07 00:37:47;;;;;;;16.43;5.63;;;;;;;1.88;100.00;-19216.41;5017378;28;20083;-68
2022/01/07 00:40:19;;;;;;;17.00;6.17;;;;;;;1.79;100.00;-19214.00;5016024;28;20025;-67
2022/01/07 00:42:45;;;;;;;16.30;5.72;;;;;;;1.75;100.00;-19213.06;5015503;28;20533;-67
2022/01/07 00:45:11;;;;;;;13.87;5.33;;;;;;;1.67;100.00;-19210.94;5014339;28;20184;-67
2022/01/07 00:47:37;;;;;;;20.90;5.93;;;;;;;1.87;100.00;-19216.13;5013173;28;20034;-67
2022/01/07 00:50:04;;;;;;;12.50;5.23;;;;;;;1.76;100.00;-19213.34;5017437;28;20024;-67
2022/01/07 00:52:30;;;;;;;16.97;5.47;;;;;;;1.88;100.00;-19216.25;5017004;28;20040;-68
2022/01/07 00:54:55;;;;;;;12.60;4.70;;;;;;;1.98;100.00;-19218.91;5018902;28;20025;-67
2022/01/07 00:57:21;;;;;;;17.43;6.23;;;;;;;2.01;100.00;-19219.72;5015116;28;20041;-67
2022/01/07 00:59:47;;;;;;;16.93;5.80;;;;;;;1.95;100.00;-19218.13;5017343;28;20037;-67
2022/01/07 01:02:13;;;;;;;12.90;5.00;;;;;;;1.93;100.00;-19217.72;5015813;28;20045;-67
2022/01/07 01:04:39;;;;;;;15.70;5.10;;;;;;;1.99;100.00;-19219.31;5017499;28;20285;-67
2022/01/07 01:07:05;;;;;;;10.57;4.50;;;;;;;2.00;100.00;-19219.59;5018806;28;20462;-67
2022/01/07 01:09:30;;;;;;;19.77;5.13;;;;;;;2.03;100.00;-19220.25;5017219;28;20110;-67
2022/01/07 01:11:57;;;;;;;15.83;4.93;;;;;;;2.05;100.00;-19220.78;5014629;28;20017;-67
2022/01/07 01:14:23;;;;;;;15.27;5.23;;;;;;;2.01;100.00;-19219.72;5020114;28;20025;-67
2022/01/07 01:16:49;;;;;;;16.70;4.40;;;;;;;2.14;100.00;-19223.03;5018157;28;20563;-67
2022/01/07 01:19:14;;;;;;;15.13;4.70;;;;;;;2.10;100.00;-19221.97;5019224;28;20021;-67
2022/01/07 01:21:40;;;;;;;18.73;4.37;;;;;;;2.11;100.00;-19222.38;5010830;28;20281;-67
2022/01/07 01:24:05;;;;;;;12.93;4.80;;;;;;;2.30;100.00;-19227.28;5009789;28;20030;-67
2022/01/07 01:26:31;;;;;;;10.53;3.37;;;;;;;2.30;100.00;-19227.28;5016998;28;20029;-67
2022/01/07 01:28:56;;;;;;;10.13;4.13;;;;;;;2.29;100.00;-19227.03;5016518;28;20017;-67
2022/01/07 01:31:22;;;;;;;11.37;4.80;;;;;;;2.27;100.00;-19226.63;5014231;28;20018;-67
2022/01/07 01:33:48;;;;;;;15.10;4.70;;;;;;;2.19;100.00;-19224.50;5013438;28;20033;-67
2022/01/07 01:36:14;;;;;;;12.63;3.80;;;;;;;2.24;100.00;-19225.81;5015521;28;20025;-68
2022/01/07 01:38:40;;;;;;;10.80;3.60;;;;;;;2.40;100.00;-19229.81;5012899;28;20025;-67
2022/01/07 01:41:07;;;;;;;11.50;4.30;;;;;;;2.37;100.00;-19229.00;5019137;28;20118;-67
2022/01/07 01:43:32;;;;;;;15.97;4.03;;;;;;;2.31;100.00;-19227.69;5011653;28;20747;-67
2022/01/07 01:45:58;;;;;;;14.10;4.23;;;;;;;2.39;100.00;-19229.53;5011683;28;20021;-67
2022/01/07 01:48:23;;;;;;;20.93;4.57;;;;;;;2.38;100.00;-19229.28;5015597;28;20362;-67
2022/01/07 01:50:51;;;;;;;10.60;3.70;;;;;;;2.38;100.00;-19229.41;5013792;28;20168;-67
2022/01/07 01:53:17;;;;;;;8.37;3.13;;;;;;;2.44;100.00;-19231.00;5016128;28;20397;-67
2022/01/07 01:55:44;;;;;;;14.63;4.17;;;;;;;2.43;100.00;-19230.75;5005955;28;20083;-67
2022/01/07 01:58:11;;;;;;;12.80;4.03;;;;;;;2.52;100.00;-19233.13;5013625;28;20319;-67
2022/01/07 02:00:37;;;;;;;10.70;3.93;;;;;;;2.51;100.00;-19232.72;5017718;28;20033;-67
2022/01/07 02:03:03;;;;;;;10.50;3.50;;;;;;;2.46;100.00;-19231.41;5013110;22;20137;-65
2022/01/07 02:05:28;;;;;;;9.10;3.43;;;;;;;2.47;100.00;-19231.81;5015185;28;20180;-66
2022/01/07 02:07:54;;;;;;;10.53;3.43;;;;;;;2.50;100.00;-19232.47;5009860;28;20033;-68
2022/01/07 02:10:20;;;;;;;10.77;3.63;;;;;;;2.52;100.00;-19233.00;5011163;28;20409;-68
2022/01/07 02:12:46;;;;;;;11.47;3.27;;;;;;;2.58;100.00;-19234.59;5009510;28;20038;-68
2022/01/07 02:15:13;;;;;;;9.00;3.03;;;;;;;2.72;100.00;-19238.31;5006767;28;20037;-68
2022/01/07 02:17:45;;;;;;;6.50;2.83;;;;;;;2.59;100.00;-19234.97;5011408;28;20045;-68
2022/01/07 02:20:12;;;;;;;10.35;4.45;;;;;;;2.62;100.00;-19235.66;5015233;28;20022;-68
2022/01/07 02:22:37;;;;;;;11.37;4.20;;;;;;;2.62;100.00;-19235.66;5010530;28;20490;-68
2022/01/07 02:25:04;;;;;;;7.57;3.20;;;;;;;2.63;100.00;-19235.91;5007314;28;20040;-68
2022/01/07 02:27:30;;;;;;;6.83;2.83;;;;;;;2.50;100.00;-19232.47;5014666;28;20619;-68
2022/01/07 02:29:57;;;;;;;10.27;3.40;;;;;;;2.38;100.00;-19229.28;5012229;28;20032;-68
2022/01/07 02:32:23;;;;;;;8.80;3.10;;;;;;;2.25;100.00;-19226.09;5013544;28;20033;-68
2022/01/07 02:34:48;;;;;;;13.70;3.97;;;;;;;2.22;100.00;-19225.28;5016910;28;20021;-68
2022/01/07 02:37:15;;;;;;;12.40;4.00;;;;;;;2.16;100.00;-19223.69;5010834;28;20541;-68
2022/01/07 02:39:41;;;;;;;12.07;3.60;;;;;;;2.04;100.00;-19220.50;5011199;28;20393;-68
2022/01/07 02:42:06;;;;;;;6.27;3.03;;;;;;;1.99;100.00;-19219.19;5015333;28;20044;-68
2022/01/07 02:44:32;;;;;;;10.97;3.60;;;;;;;1.99;100.00;-19219.19;5016661;28;20040;-68
2022/01/07 02:46:58;;;;;;;8.90;3.30;;;;;;;1.99;100.00;-19219.31;5006789;28;20032;-68
2022/01/07 02:49:23;;;;;;;11.90;3.93;;;;;;;1.94;100.00;-19218.00;5005275;28;20026;-68
2022/01/07 02:51:48;;;;;;;9.93;3.93;;;;;;;1.86;100.00;-19215.72;5006687;28;20755;-68
2022/01/07 02:54:14;;;;;;;10.00;4.00;;;;;;;1.84;100.00;-19215.19;5007169;28;20068;-68
2022/01/07 02:56:40;;;;;;;12.57;4.00;;;;;;;1.77;100.00;-19213.59;5006183;28;20029;-68
2022/01/07 02:59:07;;;;;;;11.57;4.23;;;;;;;1.73;100.00;-19212.41;5004820;28;20049;-68
2022/01/07 03:01:34;;;;;;;8.90;3.77;;;;;;;1.67;100.00;-19210.94;5004830;28;20033;-68
2022/01/07 03:04:00;;;;;;;12.43;3.70;;;;;;;1.63;100.00;-19209.75;4987582;28;20132;-69
2022/01/07 03:06:25;;;;;;;14.50;4.47;;;;;;;1.61;100.00;-19209.34;4987033;28;20240;-68
2022/01/07 03:08:51;;;;;;;10.90;4.87;;;;;;;1.55;100.00;-19207.75;4989601;28;20733;-68
2022/01/07 03:11:19;;;;;;;14.23;5.33;;;;;;;1.57;100.00;-19208.28;4987437;28;20786;-68
2022/01/07 03:13:45;;;;;;;10.10;4.47;;;;;;;1.53;100.00;-19207.22;4986745;28;20772;-68
2022/01/07 03:16:11;;;;;;;14.37;4.07;;;;;;;1.52;100.00;-19206.97;4990799;28;20116;-68
2022/01/07 03:18:36;;;;;;;10.90;4.77;;;;;;;1.45;100.00;-19205.09;4996595;28;20674;-68
2022/01/07 03:21:03;;;;;;;10.90;5.00;;;;;;;1.46;100.00;-19205.38;4985960;28;20108;-68
2022/01/07 03:23:29;;;;;;;15.53;5.00;;;;;;;1.43;100.00;-19204.69;4989732;28;20022;-69
2022/01/07 03:25:55;;;;;;;11.67;5.00;;;;;;;1.36;100.00;-19202.72;4992648;28;20466;-69
2022/01/07 03:28:20;;;;;;;14.63;4.73;;;;;;;1.35;100.00;-16510.06;4987398;28;20026;-69
2022/01/07 03:30:47;;;;;;;11.47;4.70;;;;;;;1.36;100.00;-6773.88;4984341;28;20029;-69
2022/01/07 03:33:13;;;;;;;14.47;5.57;;;;;;;1.35;100.00;4423.38;4987333;28;20367;-69
2022/01/07 03:35:39;;;;;;;12.50;5.60;;;;;;;1.31;100.00;14371.63;4985326;28;20388;-69
2022/01/07 03:38:05;;;;;;;15.40;5.30;;;;;;;1.30;100.00;24350.19;4992608;28;20141;-69
2022/01/07 03:40:31;;;;;;;11.57;5.60;;;;;;;1.31;100.00;30804.28;4990989;28;20068;-68
2022/01/07 03:42:57;;;;;;;14.93;4.77;;;;;;;1.27;100.00;34680.06;4986285;28;20026;-69
2022/01/07 03:45:22;;;;;;;13.37;5.70;;;;;;;1.24;100.00;40827.28;4986406;28;20053;-69
2022/01/07 03:47:49;;;;;;;13.47;5.33;;;;;;;1.22;100.00;47959.69;4984811;28;20034;-69
2022/01/07 03:50:17;;;;;;;14.67;5.40;;;;;;;1.23;100.00;53809.19;4990938;28;20021;-68
2022/01/07 03:52:42;;;;;;;11.83;5.17;;;;;;;1.21;100.00;59013.44;4996249;28;20581;-68
2022/01/07 03:55:12;;;;;;;14.87;5.57;;;;;;;1.18;100.00;63247.53;4992288;28;20114;-69
2022/01/07 03:57:37;;;;;;;13.80;4.83;;;;;;;1.16;100.00;67160.16;4994224;28;20068;-68
2022/01/07 04:00:10;;;;;;;18.10;5.70;;;;;;;1.17;100.00;70427.22;4996103;28;20101;-68
2022/01/07 04:02:35;;;;;;;25.17;6.57;;;;;;;1.18;100.00;75005.97;4996617;28;20048;-68
2022/01/07 04:05:01;;;;;;;13.10;5.40;;;;;;;1.17;100.00;77949.88;4991760;28;20835;-69
2022/01/07 04:07:26;;;;;;;15.17;5.97;;;;;;;1.25;100.00;79598.03;4997462;28;20037;-68
2022/01/07 04:09:52;;;;;;;17.53;5.87;;;;;;;1.27;100.00;80584.66;4987885;28;20022;-68
2022/01/07 04:12:17;;;;;;;12.37;5.57;;;;;;;1.30;100.00;80916.00;4992976;28;20030;-68
2022/01/07 04:14:42;;;;;;;15.20;5.70;;;;;;;1.32;100.00;80263.25;4995931;28;20084;-68
2022/01/07 04:17:08;;;;;;;11.87;5.50;;;;;;;1.30;100.00;80916.00;4999894;28;20053;-68
2022/01/07 04:19:34;;;;;;;13.83;5.47;;;;;;;1.32;100.00;81902.41;4994119;28;20018;-68
2022/01/07 04:22:00;;;;;;;9.87;4.53;;;;;;;1.34;100.00;82889.22;4992168;28;20022;-68
2022/01/07 04:24:25;;;;;;;21.10;6.20;;;;;;;1.34;100.00;83217.25;4988440;28;20049;-68
2022/01/07 04:26:51;;;;;;;14.37;6.80;;;;;;;1.31;100.00;84197.84;4996468;28;20076;-69
2022/01/07 04:29:16;;;;;;;12.47;5.80;;;;;;;1.30;100.00;86165.69;4994821;28;20032;-69
2022/01/07 04:31:42;;;;;;;12.40;4.83;;;;;;;1.35;100.00;88143.06;4992733;28;20061;-70
2022/01/07 04:34:07;;;;;;;14.00;6.37;;;;;;;1.33;100.00;88468.50;4996042;28;20053;-69
2022/01/07 04:36:33;;;;;;;19.77;6.87;;;;;;;1.36;100.00;90445.09;4993883;28;20381;-69
2022/01/07 04:38:58;;;;;;;14.73;4.87;;;;;;;1.34;100.00;90441.94;4995344;28;20019;-69
2022/01/07 04:41:24;;;;;;;12.23;5.20;;;;;;;1.35;100.00;91758.72;4996351;28;20034;-69
2022/01/07 04:43:49;;;;;;;10.13;4.83;;;;;;;1.38;100.00;92750.31;4989142;28;20022;-69
2022/01/07 04:46:15;;;;;;;20.10;6.33;;;;;;;1.39;100.00;91108.22;4991460;28;20054;-69
2022/01/07 04:48:40;;;;;;;11.40;5.07;;;;;;;1.36;100.00;91102.66;4996482;28;20022;-69
2022/01/07 04:51:06;;;;;;;11.60;5.83;;;;;;;1.34;100.00;92744.66;4988476;28;20077;-69
2022/01/07 04:53:31;;;;;;;16.27;6.03;;;;;;;1.31;100.00;94713.16;4993522;28;20049;-69
2022/01/07 04:55:58;;;;;;;15.53;5.93;;;;;;;1.36;100.00;97026.31;4987228;28;20022;-69
2022/01/07 04:58:25;;;;;;;17.43;5.40;;;;;;;1.37;100.00;98016.28;4991086;28;20018;-69
2022/01/07 05:00:50;;;;;;;13.53;4.80;;;;;;;1.38;100.00;98677.00;4990791;28;20037;-68
2022/01/07 05:03:16;;;;;;;9.50;4.33;;;;;;;1.41;100.00;99011.72;4988984;28;20046;-69
2022/01/07 05:05:49;;;;;;;13.60;5.50;;;;;;;1.38;100.00;99337.00;4993810;28;20033;-69
2022/01/07 05:08:16;;;;;;;15.20;5.67;;;;;;;1.38;100.00;100654.81;4990325;28;20057;-69
2022/01/07 05:10:42;;;;;;;13.87;5.90;;;;;;;1.40;100.00;102308.28;4990137;28;20030;-69
2022/01/07 05:13:08;;;;;;;14.53;5.40;;;;;;;1.43;100.00;102642.69;4991081;28;20037;-69
2022/01/07 05:15:35;;;;;;;12.00;5.50;;;;;;;1.45;100.00;102316.31;4995864;28;20418;-69
2022/01/07 05:18:01;;;;;;;14.83;6.03;;;;;;;1.41;100.00;102969.06;4995009;28;20022;-69
2022/01/07 05:20:26;;;;;;;13.40;5.40;;;;;;;1.36;100.00;104940.25;4996462;28;20150;-69
2022/01/07 05:22:51;;;;;;;14.27;5.60;;;;;;;1.40;100.00;107259.34;4992903;28;20076;-69
2022/01/07 05:25:17;;;;;;;14.50;6.03;;;;;;;1.46;100.00;108592.44;4989181;28;20153;-69
2022/01/07 05:27:42;;;;;;;17.00;6.73;;;;;;;1.42;100.00;108915.34;4996643;28;20042;-69
2022/01/07 05:30:10;;;;;;;15.10;6.13;;;;;;;1.45;100.00;110243.50;4991610;28;20041;-69
2022/01/07 05:32:35;;;;;;;11.40;5.70;;;;;;;1.47;100.00;109586.06;4995312;28;20806;-69
2022/01/07 05:35:01;;;;;;;14.37;5.70;;;;;;;1.46;100.00;109914.78;4992547;28;20021;-69
2022/01/07 05:37:27;;;;;;;21.00;6.70;;;;;;;1.45;100.00;110243.50;4996582;28;20121;-69
2022/01/07 05:39:52;;;;;;;13.57;6.57;;;;;;;1.45;100.00;110904.91;4994853;28;20026;-69
2022/01/07 05:42:18;;;;;;;12.30;5.90;;;;;;;1.45;100.00;111897.25;4996974;28;20022;-69
2022/01/07 05:44:43;;;;;;;12.80;6.07;;;;;;;1.49;100.00;112235.94;4994634;28;20536;-69
2022/01/07 05:47:08;;;;;;;15.37;6.27;;;;;;;1.46;100.00;112891.88;4994678;28;20045;-69
2022/01/07 05:49:34;;;;;;;17.07;6.37;;;;;;;1.48;100.00;113556.75;4994116;28;20027;-69
2022/01/07 05:51:59;;;;;;;10.97;5.20;;;;;;;1.58;100.00;113246.47;4989729;28;20026;-69
2022/01/07 05:54:25;;;;;;;12.63;5.37;;;;;;;1.59;100.00;112255.50;4989791;28;20023;-69
2022/01/07 05:56:50;;;;;;;12.53;6.67;;;;;;;1.62;100.00;110276.16;4988694;28;20037;-68
2022/01/07 05:59:16;;;;;;;10.43;6.13;;;;;;;1.60;100.00;109610.88;4990785;28;20026;-69
2022/01/07 06:01:41;;;;;;;11.53;5.73;;;;;;;1.65;100.00;108628.34;4986011;28;20036;-69
2022/01/07 06:04:07;;;;;;;12.60;6.27;;;;;;;1.61;100.00;107297.69;4995281;28;20042;-69
2022/01/07 06:06:33;;;;;;;22.30;6.43;;;;;;;1.60;100.00;106635.84;4988134;28;20030;-69
2022/01/07 06:08:58;;;;;;;12.57;5.43;;;;;;;1.59;100.00;107624.44;4993480;28;20525;-69
2022/01/07 06:11:23;;;;;;;11.47;5.57;;;;;;;1.64;100.00;107634.72;4991613;28;20065;-66
2022/01/07 06:13:49;;;;;;;14.53;5.57;;;;;;;1.66;100.00;106977.47;4996814;28;20034;-69
2022/01/07 06:16:14;;;;;;;12.60;5.07;;;;;;;1.73;100.00;105007.03;4996184;28;20025;-69
2022/01/07 06:18:57;;;;;;;15.37;5.33;;;;;;;1.73;100.00;101706.19;4995350;28;20026;-69
2022/01/07 06:21:22;;;;;;;12.20;5.70;;;;;;;1.77;100.00;99073.94;4987402;28;20022;-69
2022/01/07 06:23:47;;;;;;;11.50;5.83;;;;;;;1.76;100.00;96764.47;4990587;28;20029;-69
2022/01/07 06:26:13;;;;;;;13.77;5.57;;;;;;;1.78;100.00;94460.72;4993438;28;20474;-69
2022/01/07 06:28:39;;;;;;;14.37;4.73;;;;;;;1.82;100.00;94137.13;4997144;28;20055;-69
2022/01/07 06:31:04;;;;;;;11.77;4.77;;;;;;;1.83;100.00;91834.09;4979337;28;20029;-68
2022/01/07 06:33:30;;;;;;;14.03;6.23;;;;;;;1.80;100.00;89527.00;4998489;28;20029;-69
2022/01/07 06:35:55;;;;;;;11.43;5.37;;;;;;;1.80;100.00;89197.34;4987551;28;20037;-69
2022/01/07 06:38:20;;;;;;;16.83;5.80;;;;;;;1.86;100.00;87562.59;4990955;28;20030;-68
2022/01/07 06:40:46;;;;;;;10.43;5.20;;;;;;;1.87;100.00;84935.16;4996315;28;20026;-68
2022/01/07 06:43:11;;;;;;;15.10;6.17;;;;;;;1.82;100.00;83285.75;4997389;28;20076;-69
2022/01/07 06:45:37;;;;;;;17.17;7.53;;;;;;;1.77;100.00;84593.34;4987622;28;20034;-69
2022/01/07 06:48:02;;;;;;;11.67;5.83;;;;;;;1.74;100.00;87545.75;4996545;28;20030;-69
2022/01/07 06:50:28;;;;;;;12.43;5.30;;;;;;;1.80;100.00;88539.69;4990862;28;20072;-69
2022/01/07 06:52:53;;;;;;;12.17;6.60;;;;;;;1.81;100.00;89199.69;4989511;28;20061;-69
2022/01/07 06:55:18;;;;;;;10.77;5.60;;;;;;;1.82;100.00;90188.03;4990978;28;20513;-69
2022/01/07 06:57:44;;;;;;;12.13;5.83;;;;;;;1.83;100.00;90846.84;4991428;28;20080;-69
2022/01/07 07:00:10;;;;;;;12.70;6.70;;;;;;;1.79;100.00;92486.75;4992571;28;20019;-69
2022/01/07 07:02:35;;;;;;;10.30;5.13;;;;;;;1.84;100.00;93811.09;4987391;28;20128;-69
2022/01/07 07:05:01;;;;;;;11.90;6.00;;;;;;;1.87;100.00;93487.50;4991657;28;20173;-69
2022/01/07 07:07:26;;;;;;;12.90;6.13;;;;;;;1.84;100.00;93811.91;4992176;28;20014;-69
2022/01/07 07:09:52;;;;;;;14.33;6.33;;;;;;;1.91;100.00;93822.53;4987875;28;20626;-69
2022/01/07 07:12:17;;;;;;;12.77;6.13;;;;;;;1.89;100.00;92832.16;4990000;28;20029;-69
2022/01/07 07:14:43;;;;;;;13.83;5.70;;;;;;;1.94;100.00;92839.44;4995561;28;20506;-69
2022/01/07 07:17:08;;;;;;;9.63;4.70;;;;;;;1.98;100.00;92187.38;4987316;28;20025;-69
2022/01/07 07:19:34;;;;;;;11.60;5.73;;;;;;;1.94;100.00;90206.97;4987495;28;20030;-69
2022/01/07 07:21:59;;;;;;;12.00;6.37;;;;;;;1.97;100.00;90869.06;4991790;28;20473;-69
2022/01/07 07:24:25;;;;;;;12.57;5.93;;;;;;;1.98;100.00;88896.47;4988267;28;20389;-68
2022/01/07 07:26:50;;;;;;;14.53;6.43;;;;;;;1.97;100.00;88566.78;4996388;28;20407;-68
2022/01/07 07:29:15;;;;;;;12.60;7.10;;;;;;;1.94;100.00;87574.84;4988331;28;20015;-69
2022/01/07 07:31:46;;;;;;;13.87;6.13;;;;;;;1.94;100.00;88562.16;4987951;28;20037;-68
2022/01/07 07:37:10;;;;;;;13.77;6.27;;;;;;;1.85;100.00;91179.09;4901952;29;20059;-68
2022/01/07 07:39:36;;;;;;;12.33;6.17;;;;;;;1.82;100.00;93150.06;4900175;29;20027;-68
2022/01/07 07:42:02;;;;;;;14.73;6.73;;;;;;;1.79;100.00;94790.91;4898289;29;20139;-68
2022/01/07 07:44:28;;;;;;;16.77;6.87;;;;;;;1.81;100.00;96442.47;4898828;29;20163;-68
2022/01/07 07:46:53;;;;;;;12.33;5.53;;;;;;;1.75;100.00;99070.47;4902899;29;20055;-69
2022/01/07 07:49:19;;;;;;;13.33;7.27;;;;;;;1.75;100.00;101709.72;4905006;29;20080;-68
2022/01/07 07:51:46;;;;;;;14.27;7.03;;;;;;;1.75;100.00;103690.47;4898183;29;20048;-68
2022/01/07 07:54:13;;;;;;;14.00;5.87;;;;;;;1.82;100.00;104692.22;4897086;29;20052;-68
2022/01/07 07:56:38;;;;;;;17.30;7.53;;;;;;;1.77;100.00;105345.63;4895286;29;20033;-68
2022/01/07 07:59:04;;;;;;;14.90;7.00;;;;;;;1.80;100.00;107001.69;4902116;29;20043;-68
2022/01/07 08:01:30;;;;;;;13.43;7.67;;;;;;;1.77;100.00;107989.72;4899797;29;20036;-68
2022/01/07 08:03:56;;;;;;;14.47;7.03;;;;;;;1.81;100.00;108987.47;4899892;29;20040;-68
2022/01/07 08:06:21;;;;;;;16.30;7.37;;;;;;;1.80;100.00;109647.13;4898215;29;20107;-68
2022/01/07 08:08:47;;;;;;;20.23;7.87;;;;;;;1.80;100.00;110971.56;4897937;29;20020;-68
2022/01/07 08:11:13;;;;;;;13.47;6.40;;;;;;;1.85;100.00;112966.59;4894038;29;20040;-68
2022/01/07 08:16:23;;;;;;;16.93;7.57;;;;;;;1.93;100.00;113644.75;4996054;28;20036;-68
2022/01/07 08:18:56;;;;;;;13.07;6.80;;;;;;;2.00;100.00;113989.91;4988748;28;20053;-68
2022/01/07 08:21:24;;;;;;;11.00;5.83;;;;;;;1.98;100.00;113323.38;4986953;28;20022;-68
2022/01/07 08:23:51;;;;;;;16.00;7.23;;;;;;;2.07;100.00;113008.88;4989139;28;20030;-68
2022/01/07 08:26:18;;;;;;;13.40;6.77;;;;;;;2.05;100.00;111681.09;4995075;28;20480;-68
2022/01/07 08:28:48;;;;;;;17.00;8.37;;;;;;;2.06;100.00;112014.25;4989778;28;20023;-68
2022/01/07 08:36:45;;;;;;;17.67;8.70;;;;;;;2.06;100.00;112014.25;4987970;28;20057;-68
2022/01/07 08:39:11;;;;;;;18.00;7.90;;;;;;;2.14;100.00;113023.59;4987410;28;20034;-68
2022/01/07 08:41:37;;;;;;;17.80;8.27;;;;;;;2.13;100.00;113021.63;4987211;28;20083;-68
2022/01/07 08:44:05;;;;;;;17.93;8.67;;;;;;;2.19;100.00;113363.84;4994930;28;20276;-68
2022/01/07 08:46:31;;;;;;;17.87;8.77;;;;;;;2.21;100.00;114363.03;4999887;28;20501;-68
2022/01/07 08:48:57;;;;;;;18.13;8.17;;;;;;;2.24;100.00;114369.00;5000799;28;20022;-68
2022/01/07 08:51:22;;;;;;;19.00;8.53;;;;;;;2.27;100.00;113711.03;4997167;28;20033;-68
2022/01/07 08:53:48;;;;;;;19.03;9.20;;;;;;;2.27;100.00;113048.19;4990822;28;20364;-68
2022/01/07 08:56:16;;;;;;;16.43;7.97;;;;;;;2.29;100.00;113715.97;4993745;28;20061;-68
2022/01/07 08:58:42;;;;;;;17.90;8.53;;;;;;;2.32;100.00;112727.63;4996722;28;20031;-68
2022/01/07 09:01:07;;;;;;;20.40;8.57;;;;;;;2.29;100.00;112390.38;4990955;28;20364;-68
2022/01/07 09:03:33;;;;;;;19.20;8.90;;;;;;;2.25;100.00;112382.56;4995462;28;20675;-69
2022/01/07 09:05:58;;;;;;;18.20;8.63;;;;;;;2.23;100.00;113372.69;4992972;28;20029;-69
2022/01/07 09:08:24;;;;;;;15.87;7.70;;;;;;;2.27;100.00;114374.97;4991385;28;20024;-69
2022/01/07 09:10:49;;;;;;;15.27;7.37;;;;;;;2.30;100.00;114712.50;4991690;28;20034;-68
2022/01/07 09:13:15;;;;;;;18.20;9.53;;;;;;;2.29;100.00;114710.47;5002386;28;20037;-68
2022/01/07 09:15:41;;;;;;;14.43;7.40;;;;;;;2.32;100.00;115711.34;4993504;28;20698;-68
2022/01/07 09:18:14;;;;;;;18.03;8.57;;;;;;;2.35;100.00;116380.81;4992710;28;20024;-68
2022/01/07 09:20:41;;;;;;;16.57;7.50;;;;;;;2.38;100.00;116054.13;4993560;28;20446;-68
2022/01/07 09:23:07;;;;;;;23.43;9.80;;;;;;;2.39;100.00;116386.88;4990204;28;20029;-68
2022/01/07 09:25:33;;;;;;;21.20;9.73;;;;;;;2.42;100.00;117056.56;4993459;28;20038;-68
2022/01/07 09:27:58;;;;;;;19.97;9.43;;;;;;;2.43;100.00;117059.63;4991700;28;20052;-68
2022/01/07 09:30:24;;;;;;;21.87;9.57;;;;;;;2.47;100.00;117067.78;4995275;28;20042;-68
2022/01/07 09:32:49;;;;;;;22.27;10.17;;;;;;;2.48;100.00;117068.78;4992471;28;20042;-68
2022/01/07 09:35:16;;;;;;;18.43;9.37;;;;;;;2.48;100.00;117400.69;4992044;28;20053;-68
2022/01/07 09:37:42;;;;;;;18.33;8.73;;;;;;;2.51;100.00;118402.72;4989201;28;20081;-67
2022/01/07 09:40:09;;;;;;;23.20;9.20;;;;;;;2.55;100.00;119075.13;4996074;28;20026;-67
2022/01/07 09:42:34;;;;;;;22.17;9.93;;;;;;;2.55;100.00;119075.13;4994797;28;20033;-68
2022/01/07 09:45:00;;;;;;;20.63;8.93;;;;;;;2.57;100.00;119411.38;4998986;28;20026;-68
2022/01/07 09:47:27;;;;;;;17.77;9.57;;;;;;;2.57;100.00;119743.53;4995609;28;20108;-68
2022/01/07 09:49:53;;;;;;;25.40;10.63;;;;;;;2.59;100.00;120413.19;5002786;28;20037;-68
2022/01/07 09:52:18;;;;;;;20.00;8.27;;;;;;;2.67;100.00;120095.59;4987365;28;20418;-68
2022/01/07 09:54:43;;;;;;;24.50;9.53;;;;;;;2.72;100.00;120106.00;4994642;28;20057;-68
2022/01/07 09:57:09;;;;;;;18.30;9.00;;;;;;;2.74;100.00;119778.94;4989904;28;20041;-68
2022/01/07 09:59:35;;;;;;;22.03;9.60;;;;;;;2.75;100.00;119448.75;4989424;28;20590;-68
2022/01/07 10:02:04;;;;;;;20.40;8.17;;;;;;;2.81;100.00;119461.22;4997334;28;20030;-68
2022/01/07 10:04:35;;;;;;;20.67;9.20;;;;;;;2.80;100.00;119459.16;4995064;28;20045;-68
2022/01/07 10:07:16;;;;;;;22.90;10.05;;;;;;;2.82;100.00;120127.94;4987704;28;20065;-68
2022/01/07 10:09:58;;;;;;;28.87;9.23;;;;;;;2.83;100.00;120130.03;4987455;28;20642;-68
2022/01/07 10:12:24;;;;;;;;;;;;;;;2.86;100.00;119803.91;5000171;28;20287;-68
2022/01/07 10:15:33;;;;;;;27.13;10.53;;;;;;;2.84;100.00;119467.44;4985511;28;19914;-68
2022/01/07 10:18:09;;;;;;;23.37;10.77;;;;;;;2.88;100.00;120140.44;4946163;28;20135;-68
2022/01/07 10:20:46;;;;;;;21.53;9.40;;;;;;;2.89;100.00;119809.13;4947192;28;20539;-68
2022/01/07 10:23:23;;;;;;;24.13;10.20;;;;;;;2.88;100.00;119808.06;4941922;28;20039;-68
2022/01/07 10:25:53;;;;;;;22.10;10.47;;;;;;;2.89;100.00;119477.81;4942037;28;20031;-68
2022/01/07 10:28:21;;;;;;;22.63;10.53;;;;;;;2.90;100.00;119147.56;4943186;28;20033;-68
2022/01/07 10:30:52;;;;;;;22.07;9.50;;;;;;;2.94;100.00;120485.44;4949599;28;20026;-68
2022/01/07 10:33:35;;;;;;;25.77;11.33;;;;;;;2.93;100.00;120150.91;4950350;28;20106;-69
2022/01/07 10:36:06;;;;;;;25.27;10.93;;;;;;;2.98;100.00;119494.44;4941230;28;20045;-67
2022/01/07 10:38:33;;;;;;;21.83;10.15;;;;;;;3.03;100.00;119172.41;4943173;28;20206;-67
2022/01/07 10:41:00;;;;;;;21.23;10.13;;;;;;;3.02;100.00;117841.13;4941038;28;20075;-68
2022/01/07 10:43:36;;;;;;;21.27;9.10;;;;;;;3.07;100.00;117186.94;4943667;28;20495;-68
2022/01/07 10:46:10;;;;;;;30.33;11.40;;;;;;;3.10;100.00;116528.66;4943792;28;20058;-67
2022/01/07 10:48:38;;;;;;;23.80;9.80;;;;;;;3.19;100.00;115218.28;4941265;28;20116;-67
2022/01/07 10:51:15;;;;;;;26.83;10.13;;;;;;;3.19;100.00;113890.19;4945448;28;20031;-67
2022/01/07 10:53:48;;;;;;;24.80;9.10;;;;;;;3.28;100.00;111915.53;4942866;28;20455;-67
2022/01/07 10:56:15;;;;;;;20.10;10.07;;;;;;;3.39;100.00;110278.88;4983184;28;20495;-67
2022/01/07 10:58:43;;;;;;;23.23;10.20;;;;;;;3.47;100.00;106315.16;4991889;28;20130;-67
2022/01/07 11:01:21;;;;;;;16.43;7.07;;;;;;;3.53;100.00;102682.44;4988661;28;20037;-68
2022/01/07 11:03:48;;;;;;;19.70;8.10;;;;;;;3.62;100.00;98394.69;4991738;28;20050;-68
2022/01/07 11:06:13;;;;;;;19.70;8.90;;;;;;;3.68;100.00;94107.81;4992149;28;20080;-68
2022/01/07 11:08:42;;;;;;;18.33;8.40;;;;;;;3.63;100.00;90138.03;4994442;28;20053;-68
2022/01/07 11:11:09;;;;;;;20.73;9.30;;;;;;;3.70;100.00;86192.31;4997128;28;20026;-68
2022/01/07 11:13:35;;;;;;;23.73;9.60;;;;;;;3.73;100.00;82242.91;4992522;28;20041;-68
2022/01/07 11:16:05;;;;;;;17.93;8.37;;;;;;;3.83;100.00;80611.91;4994867;28;20041;-68
2022/01/07 11:18:32;;;;;;;17.37;8.27;;;;;;;3.85;100.00;76337.72;4994830;28;20028;-69
2022/01/07 11:20:59;;;;;;;19.07;7.80;;;;;;;3.79;100.00;70746.19;4989338;28;20132;-68
2022/01/07 11:23:28;;;;;;;21.47;9.37;;;;;;;3.75;100.00;66150.19;4989966;28;20402;-68
2022/01/07 11:26:05;;;;;;;11.13;5.80;;;;;;;3.75;100.00;63529.50;4993209;28;20060;-68
2022/01/07 11:28:31;;;;;;;21.00;8.47;;;;;;;3.68;100.00;61231.06;4986635;28;20037;-68